Time;durP1;ratioP1;P1;durP2;ratioP2;P2;SDS_P1;SDS_P2;PMS_P1;PMS_P2;Temp;Humidity;BMP_temperature;BMP_pressure;BME280_temperature;BME280_humidity;BME280_pressure;Samples;Min_cycle;Max_cycle;Signal;HPM_P1;HPM_P2
2021/01/03 00:01:56;;;;;;;6.72;5.07;;;2.30;99.90;;;;;;5077153;28;21041;-75
2021/01/03 00:04:21;;;;;;;6.60;4.77;;;2.40;99.90;;;;;;5084952;28;20397;-75
2021/01/03 00:06:51;;;;;;;9.60;6.05;;;2.00;99.90;;;;;;5088001;28;20435;-75
2021/01/03 00:09:17;;;;;;;8.00;5.60;;;2.60;99.90;;;;;;5088234;28;20397;-76
2021/01/03 00:11:43;;;;;;;6.23;5.10;;;2.30;99.90;;;;;;5079872;28;20393;-77
2021/01/03 00:14:09;;;;;;;6.97;5.43;;;2.00;99.90;;;;;;5081650;28;20445;-76
2021/01/03 00:16:35;;;;;;;8.60;5.68;;;2.60;99.90;;;;;;5077362;28;20393;-76
2021/01/03 00:19:02;;;;;;;9.43;6.10;;;2.00;99.90;;;;;;5081589;28;20750;-76
2021/01/03 00:21:28;;;;;;;7.18;5.00;;;2.40;99.90;;;;;;5078198;28;20386;-75
2021/01/03 00:23:53;;;;;;;7.47;5.70;;;2.70;99.90;;;;;;5077962;28;20897;-77
2021/01/03 00:26:19;;;;;;;7.50;5.80;;;3.20;99.90;;;;;;5077204;28;20386;-77
2021/01/03 00:28:45;;;;;;;8.60;5.97;;;2.10;99.90;;;;;;5079986;28;20382;-75
2021/01/03 00:31:11;;;;;;;7.78;5.40;;;2.30;99.90;;;;;;5078940;28;20390;-77
2021/01/03 00:33:38;;;;;;;7.07;5.88;;;2.40;99.90;;;;;;5080944;28;20386;-77
2021/01/03 00:36:06;;;;;;;7.05;5.90;;;2.00;99.90;;;;;;5079824;28;20382;-76
2021/01/03 00:38:33;;;;;;;7.30;6.20;;;3.00;99.90;;;;;;5078903;28;20455;-77
2021/01/03 00:40:59;;;;;;;9.15;6.50;;;2.10;99.90;;;;;;5079892;28;20402;-76
2021/01/03 00:43:26;;;;;;;8.88;6.20;;;2.10;99.90;;;;;;5081860;28;20393;-76
2021/01/03 00:45:52;;;;;;;9.00;6.18;;;2.00;99.90;;;;;;5080175;28;20384;-76
2021/01/03 00:48:18;;;;;;;9.50;6.30;;;2.30;99.90;;;;;;5080013;28;20421;-76
2021/01/03 00:50:44;;;;;;;9.03;6.00;;;1.90;99.90;;;;;;5083766;28;20432;-76
2021/01/03 00:53:10;;;;;;;10.40;6.43;;;1.70;99.90;;;;;;5082269;28;20409;-76
2021/01/03 00:55:35;;;;;;;7.25;6.45;;;3.00;99.90;;;;;;5082281;28;20394;-76
2021/01/03 00:58:01;;;;;;;9.40;6.18;;;2.10;99.90;;;;;;5083351;28;21010;-75
2021/01/03 01:00:33;;;;;;;10.45;6.68;;;2.00;99.90;;;;;;5082331;28;20905;-76
2021/01/03 01:02:59;;;;;;;8.57;7.00;;;1.90;99.90;;;;;;5083390;28;21808;-76
2021/01/03 01:05:25;;;;;;;9.80;6.47;;;3.30;99.90;;;;;;5084824;28;20382;-77
2021/01/03 01:07:52;;;;;;;8.00;5.72;;;3.40;99.90;;;;;;5080416;28;20394;-75
2021/01/03 01:10:22;;;;;;;8.88;5.93;;;2.10;99.90;;;;;;5084465;28;20390;-75
2021/01/03 01:12:49;;;;;;;11.25;6.10;;;2.00;99.90;;;;;;5085497;28;20386;-76
2021/01/03 01:15:19;;;;;;;7.72;5.43;;;3.00;99.90;;;;;;5084136;28;20958;-75
2021/01/03 01:17:49;;;;;;;11.18;6.78;;;3.50;99.90;;;;;;5081012;28;20453;-75
2021/01/03 01:20:24;;;;;;;8.30;6.10;;;3.30;99.90;;;;;;5085007;28;20451;-75
2021/01/03 01:22:50;;;;;;;7.43;5.10;;;1.80;99.90;;;;;;5084145;28;20382;-77
2021/01/03 01:25:19;;;;;;;6.63;5.38;;;3.50;99.90;;;;;;5084315;28;20386;-75
2021/01/03 01:27:46;;;;;;;7.60;5.80;;;3.90;99.90;;;;;;5082118;28;20517;-75
2021/01/03 01:30:13;;;;;;;6.00;5.40;;;2.00;99.90;;;;;;5086162;28;20382;-77
2021/01/03 01:32:40;;;;;;;7.15;5.90;;;1.90;99.90;;;;;;5084340;28;20425;-77
2021/01/03 01:35:08;;;;;;;7.88;6.00;;;1.70;99.90;;;;;;5083042;28;20398;-78
2021/01/03 01:37:34;;;;;;;7.38;5.70;;;1.80;99.90;;;;;;5083768;28;20448;-78
2021/01/03 01:40:00;;;;;;;8.05;5.50;;;3.50;99.90;;;;;;5084154;28;20374;-77
2021/01/03 01:42:26;;;;;;;7.68;5.50;;;2.90;99.90;;;;;;5083104;28;20366;-78
2021/01/03 01:44:52;;;;;;;6.68;4.80;;;3.30;99.90;;;;;;5083550;28;20457;-77
2021/01/03 01:47:24;;;;;;;6.10;5.32;;;1.90;99.90;;;;;;5079160;28;20442;-75
2021/01/03 01:49:52;;;;;;;7.30;5.37;;;2.40;99.90;;;;;;5080066;28;20386;-77
2021/01/03 01:52:20;;;;;;;7.35;5.65;;;2.90;99.90;;;;;;5083705;28;20390;-76
2021/01/03 01:54:52;;;;;;;6.32;4.80;;;1.60;99.90;;;;;;5083761;28;20389;-77
2021/01/03 01:57:26;;;;;;;6.97;5.40;;;1.50;99.90;;;;;;5080086;28;20510;-76
2021/01/03 01:59:57;;;;;;;7.72;5.82;;;2.50;99.90;;;;;;5085573;28;20386;-76
2021/01/03 02:02:36;;;;;;;5.30;4.80;;;2.10;99.90;;;;;;5091957;28;20479;-76
2021/01/03 02:05:10;;;;;;;6.60;5.50;;;1.40;99.90;;;;;;5088477;28;20920;-76
2021/01/03 02:07:47;;;;;;;8.93;5.40;;;1.90;99.90;;;;;;5090555;28;20434;-76
2021/01/03 02:10:48;;;;;;;7.40;5.72;;;1.80;99.90;;;;;;5091505;28;20727;-76
2021/01/03 02:13:22;;;;;;;6.57;5.30;;;1.90;99.90;;;;;;5089505;28;20414;-76
2021/01/03 02:15:49;;;;;;;5.78;4.53;;;3.90;99.90;;;;;;5090174;28;20382;-77
2021/01/03 02:18:15;;;;;;;8.20;5.65;;;1.70;99.90;;;;;;5090015;28;20429;-76
2021/01/03 02:21:06;;;;;;;7.35;5.25;;;2.10;99.90;;;;;;5089344;28;20389;-76
2021/01/03 02:23:35;;;;;;;8.50;5.38;;;1.50;99.90;;;;;;5090890;28;20421;-76
2021/01/03 02:26:02;;;;;;;8.13;5.75;;;1.40;99.90;;;;;;5088664;28;20404;-76
2021/01/03 02:28:34;;;;;;;7.97;6.18;;;1.50;99.90;;;;;;5091080;28;20382;-76
2021/01/03 02:31:01;;;;;;;6.40;5.13;;;3.80;99.90;;;;;;5090056;28;20821;-76
2021/01/03 02:33:32;;;;;;;8.23;4.90;;;1.70;99.90;;;;;;5090321;28;20870;-76
2021/01/03 02:36:03;;;;;;;6.37;5.30;;;1.70;99.90;;;;;;5089001;28;20396;-76
2021/01/03 02:38:30;;;;;;;6.50;5.30;;;2.70;99.90;;;;;;5089560;28;20545;-76
2021/01/03 02:40:56;;;;;;;6.55;5.40;;;1.70;99.90;;;;;;5088623;28;20822;-76
2021/01/03 02:43:21;;;;;;;7.60;5.20;;;1.50;99.90;;;;;;5088597;28;20449;-76
2021/01/03 02:45:47;;;;;;;5.77;5.17;;;2.60;99.90;;;;;;5091139;28;20390;-76
2021/01/03 02:48:20;;;;;;;7.30;5.20;;;1.60;99.90;;;;;;5090177;28;20417;-76
2021/01/03 02:50:46;;;;;;;6.75;5.35;;;1.50;99.90;;;;;;5091658;28;20370;-76
2021/01/03 02:53:12;;;;;;;8.02;4.68;;;2.40;99.90;;;;;;5091255;28;20385;-76
2021/01/03 02:55:38;;;;;;;6.60;5.10;;;3.30;99.90;;;;;;5092228;28;20417;-76
2021/01/03 02:58:04;;;;;;;6.67;4.80;;;1.30;99.90;;;;;;5091114;28;20452;-76
2021/01/03 03:00:32;;;;;;;7.70;5.80;;;1.30;99.90;;;;;;5092025;28;20466;-76
2021/01/03 03:02:58;;;;;;;6.20;4.53;;;1.70;99.90;;;;;;5091248;28;20398;-76
2021/01/03 03:05:25;;;;;;;6.70;5.43;;;3.60;99.90;;;;;;5092271;28;20457;-75
2021/01/03 03:07:51;;;;;;;6.60;4.80;;;4.00;99.90;;;;;;5091054;28;20374;-77
2021/01/03 03:10:19;;;;;;;5.10;4.60;;;3.90;99.90;;;;;;5091526;28;20390;-75
2021/01/03 03:12:53;;;;;;;7.13;5.07;;;1.90;99.90;;;;;;5090864;28;20386;-76
2021/01/03 03:15:21;;;;;;;5.63;4.97;;;3.00;99.90;;;;;;5091953;28;20465;-76
2021/01/03 03:17:47;;;;;;;7.55;4.88;;;1.50;99.90;;;;;;5091502;28;20437;-76
2021/01/03 03:20:13;;;;;;;7.75;5.18;;;1.20;99.90;;;;;;5090932;28;20858;-75
2021/01/03 03:22:40;;;;;;;6.70;5.18;;;1.30;99.90;;;;;;5092103;28;20850;-75
2021/01/03 03:25:06;;;;;;;6.20;4.72;;;1.20;99.90;;;;;;5091024;28;20381;-76
2021/01/03 03:27:32;;;;;;;5.82;4.45;;;1.40;99.90;;;;;;5089985;28;20448;-75
2021/01/03 03:29:58;;;;;;;5.93;4.80;;;1.50;99.90;;;;;;5090850;28;20843;-76
2021/01/03 03:32:24;;;;;;;8.52;5.47;;;2.70;99.90;;;;;;5092014;28;20452;-76
2021/01/03 03:34:49;;;;;;;7.93;5.10;;;1.30;99.90;;;;;;5090589;28;20383;-76
2021/01/03 03:37:15;;;;;;;6.67;5.00;;;1.10;99.90;;;;;;5090965;28;20417;-76
2021/01/03 03:39:41;;;;;;;5.90;4.80;;;2.30;99.90;;;;;;5091643;28;20853;-75
2021/01/03 03:42:06;;;;;;;6.75;4.60;;;1.30;99.90;;;;;;5090523;28;20416;-75
2021/01/03 03:44:32;;;;;;;6.40;4.85;;;3.20;99.90;;;;;;5091592;28;20385;-76
2021/01/03 03:47:01;;;;;;;6.15;5.03;;;3.10;99.90;;;;;;5090441;28;20413;-76
2021/01/03 03:49:27;;;;;;;7.50;4.93;;;3.20;99.90;;;;;;5091453;28;20468;-76
2021/01/03 03:51:54;;;;;;;6.75;5.18;;;2.60;99.90;;;;;;5091017;28;20895;-77
2021/01/03 03:54:21;;;;;;;9.02;5.82;;;1.70;99.90;;;;;;5091468;28;20382;-77
2021/01/03 03:56:55;;;;;;;6.05;4.57;;;1.20;99.90;;;;;;5091678;28;20378;-75
2021/01/03 03:59:21;;;;;;;6.47;4.80;;;0.80;99.90;;;;;;5089925;28;20958;-75
2021/01/03 04:01:47;;;;;;;6.37;5.27;;;1.80;99.90;;;;;;5091470;28;20831;-75
2021/01/03 04:04:13;;;;;;;7.30;5.22;;;1.10;99.90;;;;;;5090373;28;20370;-75
2021/01/03 04:06:39;;;;;;;6.38;4.80;;;2.50;99.90;;;;;;5091233;28;20386;-75
2021/01/03 04:09:05;;;;;;;6.50;5.00;;;1.70;99.90;;;;;;5090384;28;20373;-75
2021/01/03 04:11:31;;;;;;;7.05;4.88;;;3.60;99.90;;;;;;5091153;28;20683;-75
2021/01/03 04:13:57;;;;;;;6.43;5.10;;;1.90;99.90;;;;;;5090280;28;20386;-77
2021/01/03 04:16:23;;;;;;;6.80;5.53;;;4.00;99.90;;;;;;5091122;28;20378;-75
2021/01/03 04:18:49;;;;;;;6.88;5.05;;;2.20;99.90;;;;;;5090379;28;20432;-76
2021/01/03 04:21:14;;;;;;;7.40;5.40;;;2.40;99.90;;;;;;5090333;28;20385;-75
2021/01/03 04:23:41;;;;;;;7.97;5.60;;;1.60;99.90;;;;;;5091192;28;20780;-75
2021/01/03 04:26:17;;;;;;;7.15;5.20;;;2.60;99.90;;;;;;5090117;28;20382;-75
2021/01/03 04:28:42;;;;;;;6.37;4.90;;;1.30;99.90;;;;;;5089593;28;20421;-75
2021/01/03 04:31:08;;;;;;;6.13;4.80;;;1.60;99.90;;;;;;5089999;28;20417;-75
2021/01/03 04:33:34;;;;;;;6.63;5.43;;;2.40;99.90;;;;;;5089597;28;20392;-75
2021/01/03 04:35:59;;;;;;;5.28;4.68;;;1.60;99.90;;;;;;5089764;28;20374;-76
2021/01/03 04:38:26;;;;;;;6.57;5.57;;;2.50;99.90;;;;;;5090838;28;20461;-75
2021/01/03 04:40:55;;;;;;;7.07;5.15;;;2.60;99.90;;;;;;5089555;28;20393;-75
2021/01/03 04:43:21;;;;;;;6.13;5.33;;;1.10;99.90;;;;;;5089109;28;20393;-76
2021/01/03 04:45:51;;;;;;;6.22;4.70;;;1.30;99.90;;;;;;5090772;28;20382;-76
2021/01/03 04:48:26;;;;;;;8.95;4.32;;;1.90;99.90;;;;;;5091696;28;20394;-76
2021/01/03 04:51:34;;;;;;;6.22;4.60;;;3.90;99.90;;;;;;5091206;28;20375;-75
2021/01/03 04:54:05;;;;;;;6.63;4.72;;;1.60;99.90;;;;;;5078737;28;20398;-76
2021/01/03 04:56:40;;;;;;;6.07;4.35;;;1.40;99.90;;;;;;5090720;28;20375;-75
2021/01/03 04:59:12;;;;;;;7.93;4.30;;;1.30;99.90;;;;;;5089705;28;20397;-76
2021/01/03 05:02:02;;;;;;;5.22;4.40;;;2.40;99.90;;;;;;5090537;28;20847;-76
2021/01/03 05:04:46;;;;;;;5.65;4.20;;;1.30;99.90;;;;;;5089459;28;20394;-76
2021/01/03 05:07:35;;;;;;;4.78;4.15;;;1.50;99.90;;;;;;5088753;28;20404;-76
2021/01/03 05:10:19;;;;;;;5.05;4.38;;;3.00;99.90;;;;;;5089840;28;20374;-77
2021/01/03 05:13:35;;;;;;;5.50;4.30;;;1.40;99.90;;;;;;5090693;28;20379;-75
2021/01/03 05:16:00;;;;;;;6.30;4.47;;;1.30;99.90;;;;;;5055033;28;20390;-77
2021/01/03 05:18:26;;;;;;;5.30;4.80;;;2.80;99.90;;;;;;5090488;28;20497;-75
2021/01/03 05:20:54;;;;;;;6.18;4.68;;;1.50;99.90;;;;;;5089240;28;20373;-75
2021/01/03 05:23:23;;;;;;;6.05;4.28;;;2.90;99.90;;;;;;5089730;28;20374;-75
2021/01/03 05:25:50;;;;;;;6.45;4.47;;;1.80;99.90;;;;;;5090583;28;20427;-75
2021/01/03 05:28:24;;;;;;;5.57;4.63;;;1.20;99.90;;;;;;5089529;28;20389;-76
2021/01/03 05:30:50;;;;;;;6.05;4.85;;;1.20;99.90;;;;;;5091759;28;20742;-75
2021/01/03 05:33:27;;;;;;;6.60;4.65;;;3.40;99.90;;;;;;5093486;28;20421;-75
2021/01/03 05:35:54;;;;;;;4.68;4.18;;;1.30;99.90;;;;;;5094151;28;20478;-75
2021/01/03 05:38:41;;;;;;;6.85;4.85;;;1.50;99.90;;;;;;5091643;28;20411;-75
2021/01/03 05:41:10;;;;;;;5.15;4.22;;;1.30;99.90;;;;;;5093152;28;20382;-75
2021/01/03 05:43:35;;;;;;;7.40;4.90;;;1.60;99.90;;;;;;5093718;28;20378;-75
2021/01/03 05:46:27;;;;;;;5.17;4.27;;;1.30;99.90;;;;;;5093030;28;20768;-77
2021/01/03 05:49:02;;;;;;;6.15;4.82;;;3.30;99.90;;;;;;5092638;28;20386;-75
2021/01/03 05:51:34;;;;;;;6.50;5.13;;;1.30;99.90;;;;;;5093633;28;20386;-75
2021/01/03 05:54:06;;;;;;;4.93;4.40;;;1.40;99.90;;;;;;5093313;28;20742;-77
2021/01/03 05:56:35;;;;;;;5.35;4.85;;;1.20;99.90;;;;;;5092337;28;20378;-75
2021/01/03 05:59:01;;;;;;;5.75;4.57;;;1.00;99.90;;;;;;5092121;28;20402;-77
2021/01/03 06:01:29;;;;;;;5.25;4.60;;;2.00;99.90;;;;;;5093230;28;20416;-75
2021/01/03 06:04:01;;;;;;;5.82;4.65;;;1.50;99.90;;;;;;5093474;28;20378;-75
2021/01/03 06:06:59;;;;;;;5.18;4.30;;;1.60;99.90;;;;;;5093022;28;20382;-75
2021/01/03 06:09:39;;;;;;;6.90;5.32;;;1.10;99.90;;;;;;5092592;28;20389;-75
2021/01/03 06:12:13;;;;;;;5.25;3.90;;;3.20;99.90;;;;;;5091325;28;20431;-76
2021/01/03 06:14:39;;;;;;;5.75;4.57;;;1.20;99.90;;;;;;5093446;28;20382;-76
2021/01/03 06:17:16;;;;;;;6.40;5.20;;;1.00;99.90;;;;;;5092146;28;20429;-76
2021/01/03 06:19:50;;;;;;;7.13;4.60;;;1.10;99.90;;;;;;5093219;28;20402;-75
2021/01/03 06:22:36;;;;;;;7.43;5.00;;;1.60;99.90;;;;;;5092096;28;20461;-76
2021/01/03 06:25:23;;;;;;;5.25;4.50;;;2.10;99.90;;;;;;5092965;28;20378;-77
2021/01/03 06:27:49;;;;;;;7.47;5.03;;;1.30;99.90;;;;;;5093145;28;20389;-75
2021/01/03 06:30:20;;;;;;;5.97;4.40;;;1.10;99.90;;;;;;5092188;28;20456;-75
2021/01/03 06:32:51;;;;;;;6.28;4.90;;;1.50;99.90;;;;;;5092825;28;20397;-76
2021/01/03 06:35:41;;;;;;;5.15;4.25;;;3.40;99.90;;;;;;5090855;28;20430;-76
2021/01/03 06:38:40;;;;;;;7.53;4.95;;;1.50;99.90;;;;;;5091674;28;20414;-76
2021/01/03 06:41:24;;;;;;;6.97;5.15;;;1.30;99.90;;;;;;5091700;28;20734;-77
2021/01/03 06:44:27;;;;;;;6.78;4.90;;;3.50;99.90;;;;;;5091570;28;20394;-75
2021/01/03 06:47:03;;;;;;;5.88;4.55;;;1.50;99.90;;;;;;5092427;28;20742;-75
2021/01/03 06:50:03;;;;;;;6.13;4.30;;;3.90;99.90;;;;;;5092090;28;20874;-77
2021/01/03 06:53:02;;;;;;;5.75;4.35;;;1.10;99.90;;;;;;5092403;28;20378;-76
2021/01/03 06:55:55;;;;;;;5.00;4.30;;;1.30;99.90;;;;;;5091916;28;20382;-77
2021/01/03 06:58:45;;;;;;;5.05;4.20;;;1.30;99.90;;;;;;5091682;28;20534;-76
2021/01/03 07:01:22;;;;;;;6.85;5.00;;;1.30;99.90;;;;;;5091627;28;20727;-77
2021/01/03 07:03:52;;;;;;;6.32;4.63;;;1.10;99.90;;;;;;5092335;28;20378;-77
2021/01/03 07:06:18;;;;;;;5.78;4.85;;;3.00;99.90;;;;;;5091532;28;20378;-77
2021/01/03 07:08:51;;;;;;;4.65;4.25;;;2.20;99.90;;;;;;5092655;28;20398;-77
2021/01/03 07:11:36;;;;;;;5.82;4.20;;;3.10;99.90;;;;;;5091360;28;20454;-77
2021/01/03 07:14:04;;;;;;;6.95;4.57;;;1.30;99.90;;;;;;5090910;28;20417;-77
2021/01/03 07:16:57;;;;;;;4.40;4.00;;;1.30;99.90;;;;;;5091616;28;20394;-77
2021/01/03 07:19:32;;;;;;;5.80;4.50;;;2.30;99.90;;;;;;5087615;28;20462;-77
2021/01/03 07:21:59;;;;;;;5.57;4.90;;;3.10;99.90;;;;;;5092297;28;20439;-77
2021/01/03 07:24:30;;;;;;;5.88;4.68;;;2.60;99.90;;;;;;5091270;28;21056;-77
2021/01/03 07:27:28;;;;;;;6.13;4.60;;;1.60;99.90;;;;;;5091730;28;20869;-77
2021/01/03 07:30:15;;;;;;;5.30;4.80;;;1.20;99.90;;;;;;5092142;28;20386;-77
2021/01/03 07:32:59;;;;;;;5.18;4.68;;;1.30;99.90;;;;;;5090228;28;20402;-77
2021/01/03 07:35:25;;;;;;;6.97;5.60;;;2.90;99.90;;;;;;5090878;28;20894;-77
2021/01/03 07:37:54;;;;;;;6.13;5.10;;;0.80;99.90;;;;;;5091809;28;20471;-76
2021/01/03 07:40:24;;;;;;;6.03;4.90;;;1.40;99.90;;;;;;5089046;28;21749;-77
2021/01/03 07:42:52;;;;;;;5.93;4.55;;;1.30;99.90;;;;;;5091575;28;20377;-75
2021/01/03 07:45:43;;;;;;;7.05;5.50;;;1.40;99.90;;;;;;5090906;28;20454;-75
2021/01/03 07:48:36;;;;;;;8.43;5.75;;;0.90;99.90;;;;;;5081529;28;20436;-78
2021/01/03 07:51:02;;;;;;;8.15;5.65;;;1.40;99.90;;;;;;5091637;28;20378;-76
2021/01/03 07:53:34;;;;;;;7.15;5.43;;;1.40;99.90;;;;;;5090561;28;20390;-76
2021/01/03 07:56:13;;;;;;;5.97;5.10;;;2.00;99.90;;;;;;5090297;28;20393;-77
2021/01/03 07:58:38;;;;;;;5.60;5.00;;;1.20;99.90;;;;;;5091476;28;20398;-78
2021/01/03 08:01:04;;;;;;;6.93;4.95;;;2.80;99.90;;;;;;5091317;28;20389;-75
2021/01/03 08:03:30;;;;;;;7.00;5.47;;;1.30;99.90;;;;;;5089387;28;20393;-76
2021/01/03 08:06:08;;;;;;;7.28;5.60;;;1.90;99.90;;;;;;5091258;28;20469;-78
2021/01/03 08:08:35;;;;;;;6.05;4.63;;;1.20;99.90;;;;;;5090986;28;20382;-77
2021/01/03 08:11:28;;;;;;;6.55;5.13;;;1.20;99.90;;;;;;5091616;28;20382;-78
2021/01/03 08:14:01;;;;;;;7.85;6.10;;;3.40;99.90;;;;;;5082910;28;20532;-76
2021/01/03 08:16:29;;;;;;;8.18;5.97;;;1.20;99.90;;;;;;5090397;28;20739;-77
2021/01/03 08:19:08;;;;;;;8.15;6.90;;;4.40;99.90;;;;;;5091198;28;20479;-77
2021/01/03 08:21:36;;;;;;;6.95;6.05;;;1.30;99.90;;;;;;5089261;28;20905;-77
2021/01/03 08:24:11;;;;;;;9.00;6.60;;;3.00;99.90;;;;;;5091007;28;20386;-77
2021/01/03 08:26:47;;;;;;;9.10;5.88;;;1.20;99.90;;;;;;5089468;28;20386;-77
2021/01/03 08:29:42;;;;;;;8.13;6.70;;;1.00;99.90;;;;;;5090284;28;20477;-77
2021/01/03 08:32:15;;;;;;;9.07;6.60;;;1.20;99.90;;;;;;5090626;28;20401;-76
2021/01/03 08:34:42;;;;;;;7.57;5.85;;;1.30;99.90;;;;;;5089458;28;20402;-76
2021/01/03 08:37:23;;;;;;;9.93;6.25;;;1.20;99.90;;;;;;5090467;28;20422;-75
2021/01/03 08:39:51;;;;;;;8.20;6.68;;;1.00;99.90;;;;;;5090930;28;20385;-76
2021/01/03 08:42:22;;;;;;;6.80;6.00;;;1.30;99.90;;;;;;5089715;28;20381;-76
2021/01/03 08:44:52;;;;;;;7.72;6.22;;;1.50;99.90;;;;;;5090916;28;20730;-75
2021/01/03 08:47:33;;;;;;;7.05;5.53;;;2.50;99.90;;;;;;5090334;28;20406;-76
2021/01/03 08:50:15;;;;;;;9.10;6.30;;;1.80;99.90;;;;;;5090927;28;20394;-76
2021/01/03 08:52:41;;;;;;;7.55;6.75;;;1.20;99.90;;;;;;5090812;28;20511;-76
2021/01/03 08:55:18;;;;;;;8.88;6.88;;;1.90;99.90;;;;;;5090507;28;20464;-75
2021/01/03 08:57:44;;;;;;;9.15;6.07;;;1.20;99.90;;;;;;5090490;28;20406;-77
2021/01/03 09:00:19;;;;;;;8.45;5.80;;;3.20;99.90;;;;;;5090654;28;20422;-76
2021/01/03 09:02:47;;;;;;;8.25;7.15;;;1.10;99.90;;;;;;5091130;28;20405;-75
2021/01/03 09:05:17;;;;;;;8.70;6.28;;;1.40;99.90;;;;;;5090393;28;20934;-78
2021/01/03 09:07:44;;;;;;;7.10;5.95;;;3.40;99.90;;;;;;5093198;28;20473;-76
2021/01/03 09:10:18;;;;;;;8.15;6.50;;;4.00;99.90;;;;;;5094567;28;20715;-75
2021/01/03 09:12:45;;;;;;;8.85;7.00;;;3.60;99.90;;;;;;5094352;28;20778;-76
2021/01/03 09:15:23;;;;;;;8.30;6.70;;;1.30;99.90;;;;;;5094442;28;20378;-76
2021/01/03 09:18:07;;;;;;;9.90;7.30;;;1.50;99.90;;;;;;5094125;28;20417;-75
2021/01/03 09:20:40;;;;;;;8.82;6.80;;;0.90;99.90;;;;;;5093299;28;20370;-76
2021/01/03 09:23:14;;;;;;;10.15;8.20;;;2.00;99.90;;;;;;5093103;28;20408;-77
2021/01/03 09:25:41;;;;;;;9.18;7.30;;;1.30;99.90;;;;;;5092810;28;20967;-77
2021/01/03 09:28:29;;;;;;;10.35;7.32;;;4.00;99.90;;;;;;5094196;28;20378;-77
2021/01/03 09:31:24;;;;;;;10.10;7.97;;;2.00;99.90;;;;;;5081112;28;20496;-77
2021/01/03 09:34:09;;;;;;;11.25;7.40;;;1.30;99.90;;;;;;5094193;28;20405;-76
2021/01/03 09:37:08;;;;;;;8.50;7.30;;;1.50;99.90;;;;;;5093298;28;20447;-76
2021/01/03 09:39:44;;;;;;;9.88;7.82;;;1.40;99.90;;;;;;5093222;28;20651;-78
2021/01/03 09:42:58;;;;;;;9.70;6.75;;;1.50;99.90;;;;;;5093869;28;20450;-77
2021/01/03 09:45:29;;;;;;;10.18;7.68;;;1.50;99.90;;;;;;5003811;28;20885;-75
2021/01/03 09:47:56;;;;;;;9.82;6.90;;;1.50;99.90;;;;;;5092445;28;20878;-75
2021/01/03 09:50:31;;;;;;;10.05;7.22;;;1.40;99.90;;;;;;5093144;28;20367;-77
2021/01/03 09:53:15;;;;;;;10.47;7.40;;;1.40;99.90;;;;;;5093743;28;20816;-77
2021/01/03 09:56:01;;;;;;;8.68;6.15;;;2.80;99.90;;;;;;5092149;28;20394;-76
2021/01/03 09:58:35;;;;;;;10.77;7.38;;;1.30;99.90;;;;;;5092754;28;20485;-77
2021/01/03 10:01:00;;;;;;;8.85;7.13;;;1.60;99.90;;;;;;5093399;28;20778;-77
2021/01/03 10:03:35;;;;;;;12.43;8.07;;;1.30;99.90;;;;;;5092768;28;20386;-77
2021/01/03 10:06:28;;;;;;;11.30;7.30;;;1.80;99.90;;;;;;5093651;28;20480;-77
2021/01/03 10:09:26;;;;;;;10.13;7.50;;;1.50;99.90;;;;;;5093427;28;20810;-76
2021/01/03 10:11:53;;;;;;;9.43;6.53;;;1.70;99.90;;;;;;5048360;28;20862;-76
2021/01/03 10:14:28;;;;;;;9.70;7.80;;;2.60;99.90;;;;;;5091275;28;20378;-78
2021/01/03 10:16:54;;;;;;;9.87;6.93;;;3.90;99.90;;;;;;5091618;28;20390;-77
2021/01/03 10:19:22;;;;;;;9.52;7.10;;;4.40;99.90;;;;;;5092252;28;20381;-77
2021/01/03 10:21:49;;;;;;;10.05;7.75;;;1.90;99.90;;;;;;5093204;28;20378;-77
2021/01/03 10:24:21;;;;;;;10.05;7.57;;;3.10;99.90;;;;;;5093247;28;20386;-77
2021/01/03 10:27:02;;;;;;;10.25;7.10;;;1.60;99.90;;;;;;5091948;28;20794;-76
2021/01/03 10:29:28;;;;;;;8.93;6.93;;;1.80;99.90;;;;;;5091823;28;20386;-78
2021/01/03 10:31:54;;;;;;;9.15;7.22;;;1.70;99.90;;;;;;5092113;28;20402;-78
2021/01/03 10:34:21;;;;;;;11.10;7.80;;;1.50;99.90;;;;;;5092051;28;20422;-79
2021/01/03 10:36:47;;;;;;;9.23;7.22;;;3.60;99.90;;;;;;5092670;28;20378;-78
2021/01/03 10:39:15;;;;;;;10.20;7.47;;;3.70;99.90;;;;;;5092398;28;20413;-77
2021/01/03 10:41:42;;;;;;;11.68;7.93;;;2.10;99.90;;;;;;5091743;28;20742;-77
2021/01/03 10:44:10;;;;;;;10.90;7.95;;;1.80;99.90;;;;;;5091396;28;20473;-78
2021/01/03 10:46:36;;;;;;;12.95;9.27;;;1.10;99.90;;;;;;5091985;28;20424;-75
2021/01/03 10:49:03;;;;;;;12.70;8.95;;;3.00;99.90;;;;;;5092280;28;20382;-76
2021/01/03 10:51:35;;;;;;;12.63;8.30;;;1.90;99.90;;;;;;5090455;28;20394;-78
2021/01/03 10:54:02;;;;;;;11.07;8.52;;;2.50;99.90;;;;;;5091520;28;20405;-78
2021/01/03 10:56:28;;;;;;;12.32;7.85;;;1.60;99.90;;;;;;5091476;28;20370;-78
2021/01/03 10:58:55;;;;;;;11.95;8.30;;;4.00;99.90;;;;;;5092460;28;20467;-78
2021/01/03 11:01:21;;;;;;;12.10;8.30;;;1.60;99.90;;;;;;5091778;28;20429;-79
2021/01/03 11:03:48;;;;;;;11.80;8.00;;;1.80;99.90;;;;;;5092341;28;20435;-77
2021/01/03 11:06:14;;;;;;;12.30;8.50;;;1.80;99.90;;;;;;5092029;28;20807;-76
2021/01/03 11:08:39;;;;;;;11.95;7.93;;;3.10;99.90;;;;;;5091376;28;20439;-76
2021/01/03 11:11:06;;;;;;;11.55;8.40;;;2.90;99.90;;;;;;5092427;28;20834;-76
2021/01/03 11:13:32;;;;;;;11.90;9.13;;;3.60;99.90;;;;;;5089958;28;20451;-77
2021/01/03 11:15:58;;;;;;;14.10;9.45;;;3.10;99.90;;;;;;5092260;28;20457;-76
2021/01/03 11:18:23;;;;;;;12.50;8.98;;;3.10;99.90;;;;;;5091321;28;20520;-78
2021/01/03 11:20:49;;;;;;;11.98;9.15;;;1.80;99.90;;;;;;5092096;28;20446;-78
2021/01/03 11:23:15;;;;;;;12.55;9.40;;;1.60;99.90;;;;;;5092051;28;20746;-76
2021/01/03 11:25:43;;;;;;;12.20;8.47;;;1.80;99.90;;;;;;5091140;28;20382;-77
2021/01/03 11:28:09;;;;;;;12.50;8.65;;;1.60;99.90;;;;;;5090005;28;20389;-76
2021/01/03 11:30:34;;;;;;;11.33;8.87;;;3.80;99.90;;;;;;5089623;28;20394;-76
2021/01/03 11:33:00;;;;;;;13.27;8.63;;;1.50;99.90;;;;;;5091370;28;20382;-77
2021/01/03 11:35:25;;;;;;;10.23;8.27;;;1.60;99.90;;;;;;5090954;28;20436;-77
2021/01/03 11:37:51;;;;;;;11.10;8.07;;;2.00;99.90;;;;;;5091550;28;20467;-76
2021/01/03 11:40:17;;;;;;;14.23;9.30;;;1.40;99.90;;;;;;5091411;28;20977;-77
2021/01/03 11:42:43;;;;;;;11.73;9.10;;;1.20;99.90;;;;;;5090964;28;20415;-77
2021/01/03 11:45:13;;;;;;;11.13;7.90;;;2.70;99.90;;;;;;5091444;28;20382;-78
2021/01/03 11:47:39;;;;;;;11.38;7.80;;;1.70;99.90;;;;;;5089422;28;20712;-77
2021/01/03 11:50:10;;;;;;;12.63;8.23;;;1.80;99.90;;;;;;5091599;28;20453;-77
2021/01/03 11:52:36;;;;;;;10.40;8.43;;;1.70;99.90;;;;;;5090866;28;20384;-77
2021/01/03 11:55:05;;;;;;;13.10;8.27;;;3.90;99.90;;;;;;5091368;28;20476;-77
2021/01/03 11:57:31;;;;;;;9.50;7.65;;;1.60;99.90;;;;;;5090029;28;20750;-77
2021/01/03 11:59:56;;;;;;;11.03;8.20;;;3.20;99.90;;;;;;5080558;28;20398;-78
2021/01/03 12:02:22;;;;;;;9.80;7.67;;;2.10;99.90;;;;;;5082583;28;20386;-79
2021/01/03 12:04:48;;;;;;;10.88;7.80;;;1.70;99.90;;;;;;5078424;28;20398;-77
2021/01/03 12:07:17;;;;;;;10.77;8.23;;;1.70;99.90;;;;;;5081949;28;20466;-78
2021/01/03 12:09:45;;;;;;;12.35;8.45;;;2.00;99.90;;;;;;5079635;28;20397;-79
2021/01/03 12:12:13;;;;;;;10.50;8.27;;;1.90;99.90;;;;;;5080437;28;20436;-78
2021/01/03 12:14:40;;;;;;;11.27;7.93;;;2.70;99.90;;;;;;5079668;28;20378;-78
2021/01/03 12:17:11;;;;;;;11.15;8.55;;;1.80;99.90;;;;;;5081857;28;20405;-78
2021/01/03 12:19:37;;;;;;;10.15;7.57;;;2.40;99.90;;;;;;5078353;28;20477;-79
2021/01/03 12:22:05;;;;;;;10.52;7.50;;;2.50;99.90;;;;;;5081024;28;21086;-79
2021/01/03 12:24:31;;;;;;;12.23;7.53;;;3.70;99.90;;;;;;5081587;28;20382;-79
2021/01/03 12:26:57;;;;;;;10.38;7.38;;;1.70;99.90;;;;;;5080998;28;20386;-78
2021/01/03 12:29:24;;;;;;;11.40;8.07;;;2.10;99.90;;;;;;5076237;28;20945;-79
2021/01/03 12:31:57;;;;;;;13.13;8.88;;;1.60;99.90;;;;;;5081784;28;20390;-79
2021/01/03 12:34:25;;;;;;;10.05;8.13;;;3.10;99.90;;;;;;5082403;28;20381;-78
2021/01/03 12:36:51;;;;;;;10.40;7.30;;;2.10;99.90;;;;;;5080321;28;20390;-79
2021/01/03 12:39:19;;;;;;;10.52;7.55;;;3.20;99.90;;;;;;5082134;28;20855;-80
2021/01/03 12:41:45;;;;;;;10.85;7.13;;;1.80;99.90;;;;;;5088508;28;20378;-76
2021/01/03 12:44:11;;;;;;;10.07;7.38;;;2.20;99.90;;;;;;5087632;28;20435;-78
2021/01/03 12:46:41;;;;;;;12.07;7.90;;;1.80;99.90;;;;;;5089049;28;20631;-80
2021/01/03 12:49:08;;;;;;;10.63;7.20;;;2.40;99.90;;;;;;5089009;28;20374;-80
2021/01/03 12:51:34;;;;;;;9.38;7.35;;;1.50;99.90;;;;;;5086696;28;20401;-79
2021/01/03 12:54:00;;;;;;;10.63;7.40;;;2.20;99.90;;;;;;5089704;28;21730;-79
2021/01/03 12:56:26;;;;;;;7.50;6.40;;;1.90;99.90;;;;;;5089266;28;20414;-78
2021/01/03 12:59:00;;;;;;;8.70;7.00;;;1.90;99.90;;;;;;5087126;28;20420;-78
2021/01/03 13:01:31;;;;;;;11.20;8.23;;;2.20;99.90;;;;;;5085399;28;20433;-79
2021/01/03 13:03:58;;;;;;;11.10;8.65;;;4.30;99.90;;;;;;5089343;28;20393;-79
2021/01/03 13:06:24;;;;;;;10.63;7.80;;;4.00;99.90;;;;;;5087764;28;20390;-79
2021/01/03 13:08:52;;;;;;;8.93;7.50;;;1.90;99.90;;;;;;5087595;28;20886;-78
2021/01/03 13:11:18;;;;;;;10.38;7.75;;;2.10;99.90;;;;;;5086988;28;20381;-78
2021/01/03 13:13:44;;;;;;;10.48;7.95;;;2.10;99.90;;;;;;5087764;28;20880;-77
2021/01/03 13:16:11;;;;;;;10.30;7.70;;;2.20;99.90;;;;;;5088787;28;20398;-79
2021/01/03 13:18:37;;;;;;;11.60;7.82;;;2.00;99.90;;;;;;5088886;28;20416;-79